Time;durP1;ratioP1;P1;durP2;ratioP2;P2;SDS_P1;SDS_P2;PMS_P1;PMS_P2;Temp;Humidity;BMP_temperature;BMP_pressure;BME280_temperature;BME280_humidity;BME280_pressure;Samples;Min_cycle;Max_cycle;Signal;HPM_P1;HPM_P2
2023/01/21 00:00:42;;;;;;;69.60;31.98;;;2.00;99.90;;;;;;5048600;28;20036;-67
2023/01/21 00:03:08;;;;;;;72.63;33.97;;;2.00;99.90;;;;;;5049640;28;20173;-67
2023/01/21 00:05:34;;;;;;;72.10;30.70;;;2.00;99.90;;;;;;5048113;28;20017;-67
2023/01/21 00:07:59;;;;;;;66.40;29.60;;;2.00;99.90;;;;;;5048232;28;20083;-67
2023/01/21 00:10:25;;;;;;;63.35;28.85;;;2.00;99.90;;;;;;5047923;28;20393;-67
2023/01/21 00:12:51;;;;;;;65.13;30.15;;;2.00;99.90;;;;;;5049060;28;20134;-67
2023/01/21 00:15:17;;;;;;;62.15;28.83;;;2.00;99.90;;;;;;5049080;28;20033;-66
2023/01/21 00:17:42;;;;;;;66.63;29.05;;;1.90;99.90;;;;;;5048162;28;20025;-67
2023/01/21 00:20:09;;;;;;;61.95;30.48;;;1.90;99.90;;;;;;5046478;28;20465;-67
2023/01/21 00:22:35;;;;;;;62.72;28.95;;;1.90;99.90;;;;;;5048166;28;20029;-67
2023/01/21 00:25:01;;;;;;;72.10;31.17;;;1.90;99.90;;;;;;5047337;28;20064;-66
2023/01/21 00:27:27;;;;;;;63.30;27.80;;;2.00;99.90;;;;;;5048328;28;20112;-66
2023/01/21 00:29:53;;;;;;;68.05;28.85;;;2.00;99.90;;;;;;5046451;28;20096;-67
2023/01/21 00:32:18;;;;;;;65.88;30.77;;;1.90;99.90;;;;;;5047912;28;20133;-67
2023/01/21 00:34:44;;;;;;;74.25;33.50;;;1.90;99.90;;;;;;5047966;28;20510;-68
2023/01/21 00:37:10;;;;;;;71.22;31.67;;;1.90;99.90;;;;;;5047703;28;20017;-67
2023/01/21 00:39:41;;;;;;;67.38;31.23;;;1.90;99.90;;;;;;5048384;28;20525;-66
2023/01/21 00:42:07;;;;;;;64.35;29.73;;;1.90;99.90;;;;;;5045714;28;20017;-67
2023/01/21 00:44:33;;;;;;;64.15;30.50;;;1.90;99.90;;;;;;5041911;28;20036;-67
2023/01/21 00:47:02;;;;;;;71.30;34.10;;;1.90;99.90;;;;;;5043206;28;20033;-66
2023/01/21 00:49:27;;;;;;;65.47;31.52;;;1.90;99.90;;;;;;5036982;28;20029;-66
2023/01/21 00:51:53;;;;;;;65.43;31.00;;;1.90;99.90;;;;;;5036171;28;20036;-67
2023/01/21 00:54:19;;;;;;;74.43;33.88;;;1.90;99.90;;;;;;5039753;28;20032;-67
2023/01/21 00:56:44;;;;;;;67.95;31.60;;;1.80;99.90;;;;;;5036869;28;20492;-67
2023/01/21 00:59:10;;;;;;;70.90;31.65;;;1.80;99.90;;;;;;5033452;28;20028;-67
2023/01/21 01:01:37;;;;;;;70.13;32.75;;;1.80;99.90;;;;;;5040766;28;20032;-67
2023/01/21 01:04:04;;;;;;;75.95;32.03;;;1.80;99.90;;;;;;5038309;28;20036;-68
2023/01/21 01:06:30;;;;;;;70.18;31.77;;;1.90;99.90;;;;;;5037270;28;20018;-66
2023/01/21 01:08:59;;;;;;;78.05;33.30;;;1.70;99.90;;;;;;5041966;28;20469;-67
2023/01/21 01:11:26;;;;;;;71.85;31.98;;;1.70;99.90;;;;;;5042943;28;20017;-66
2023/01/21 01:13:53;;;;;;;75.00;35.58;;;1.70;99.90;;;;;;5041367;28;20362;-67
2023/01/21 01:16:20;;;;;;;82.00;34.40;;;1.70;99.90;;;;;;5044201;28;20017;-67
2023/01/21 01:18:46;;;;;;;71.50;32.30;;;1.70;99.90;;;;;;5041066;28;20024;-67
2023/01/21 01:21:14;;;;;;;72.97;33.22;;;1.70;99.90;;;;;;5041909;28;20393;-67
2023/01/21 01:23:40;;;;;;;78.95;34.20;;;1.80;99.90;;;;;;5041251;28;20037;-67
2023/01/21 01:26:09;;;;;;;77.30;32.45;;;1.70;99.90;;;;;;5047445;28;20096;-67
2023/01/21 01:28:35;;;;;;;67.80;31.52;;;1.70;99.90;;;;;;5043226;28;20173;-67
2023/01/21 01:31:04;;;;;;;85.93;33.83;;;1.70;99.90;;;;;;5040760;28;20131;-67
2023/01/21 01:33:30;;;;;;;78.35;35.28;;;1.70;99.90;;;;;;5040234;28;20068;-67
2023/01/21 01:36:00;;;;;;;79.05;34.42;;;1.70;99.90;;;;;;5041663;28;20057;-66
2023/01/21 01:38:26;;;;;;;79.25;34.70;;;1.70;99.90;;;;;;5041060;28;20484;-69
2023/01/21 01:40:52;;;;;;;77.95;35.78;;;1.70;99.90;;;;;;5042129;28;20092;-67
2023/01/21 01:43:21;;;;;;;78.25;34.55;;;1.70;99.90;;;;;;5043195;28;20037;-67
2023/01/21 01:45:47;;;;;;;75.65;33.67;;;1.70;99.90;;;;;;5041089;28;20042;-67
2023/01/21 01:48:18;;;;;;;75.63;33.30;;;1.70;99.90;;;;;;5042025;28;20029;-67
2023/01/21 01:50:45;;;;;;;74.22;32.85;;;1.70;99.90;;;;;;5043111;28;20025;-66
2023/01/21 01:53:12;;;;;;;72.80;33.83;;;1.70;99.90;;;;;;5041600;28;20013;-67
2023/01/21 01:55:38;;;;;;;77.15;33.58;;;1.70;99.90;;;;;;5040998;28;20039;-67
2023/01/21 01:58:07;;;;;;;77.75;33.78;;;1.70;99.90;;;;;;5043176;28;20021;-67
2023/01/21 02:00:33;;;;;;;84.30;34.88;;;1.70;99.90;;;;;;5042085;28;20377;-68
2023/01/21 02:05:44;;;;;;;83.82;33.35;;;1.70;99.90;;;;;;5042361;28;20450;-66
2023/01/21 02:08:09;;;;;;;78.85;32.78;;;1.60;99.90;;;;;;5042525;28;20056;-66
2023/01/21 02:10:35;;;;;;;80.85;33.65;;;1.60;99.90;;;;;;5041977;28;20041;-67
2023/01/21 02:13:02;;;;;;;82.53;33.63;;;1.50;99.90;;;;;;5040670;28;20370;-66
2023/01/21 02:15:50;;;;;;;73.40;34.50;;;1.60;99.90;;;;;;5039856;28;20021;-67
2023/01/21 02:18:28;;;;;;;80.43;33.53;;;1.60;99.90;;;;;;5031839;28;20021;-67
2023/01/21 02:21:17;;;;;;;82.68;33.50;;;1.60;99.90;;;;;;5033990;28;20030;-67
2023/01/21 02:23:49;;;;;;;77.55;34.03;;;1.50;99.90;;;;;;5050547;28;20033;-67
2023/01/21 02:26:52;;;;;;;79.50;34.75;;;1.50;99.90;;;;;;5051959;28;20021;-66
2023/01/21 02:29:30;;;;;;;;;;;1.50;99.90;;;;;;5053065;28;20031;-66
2023/01/21 02:32:05;;;;;;;85.72;37.17;;;1.60;99.90;;;;;;5071685;28;20331;-67
2023/01/21 02:34:38;;;;;;;85.43;36.75;;;1.60;99.90;;;;;;5070726;28;20028;-68
2023/01/21 02:37:10;;;;;;;76.18;34.58;;;1.50;99.90;;;;;;5068652;28;20103;-66
2023/01/21 02:39:41;;;;;;;87.60;36.90;;;1.50;99.90;;;;;;5030857;28;20474;-67
2023/01/21 02:42:26;;;;;;;81.38;35.17;;;1.50;99.90;;;;;;5032023;28;20049;-66
2023/01/21 02:45:16;;;;;;;77.10;34.00;;;1.50;99.90;;;;;;5035566;28;20393;-66
2023/01/21 02:48:04;;;;;;;87.60;36.70;;;1.40;99.90;;;;;;5034369;28;20096;-66
2023/01/21 02:50:37;;;;;;;89.43;37.92;;;1.40;99.90;;;;;;5035553;28;20495;-67
2023/01/21 02:53:04;;;;;;;84.68;34.45;;;1.40;99.90;;;;;;5036391;28;20149;-66
2023/01/21 02:55:34;;;;;;;79.35;35.45;;;1.40;99.90;;;;;;5035409;28;20036;-66
2023/01/21 02:58:09;;;;;;;83.80;34.00;;;1.40;99.90;;;;;;5040490;28;20035;-66
2023/01/21 03:00:58;;;;;;;76.10;34.00;;;1.40;99.90;;;;;;5055395;28;20142;-66
2023/01/21 03:03:48;;;;;;;87.40;34.13;;;1.50;99.90;;;;;;5054432;28;20068;-67
2023/01/21 03:06:35;;;;;;;84.53;35.22;;;1.50;99.90;;;;;;5054371;28;20041;-67
2023/01/21 03:09:25;;;;;;;76.93;33.25;;;1.40;99.90;;;;;;5053402;28;20037;-67
2023/01/21 03:12:11;;;;;;;90.38;36.03;;;1.40;99.90;;;;;;5054999;28;20097;-66
2023/01/21 03:18:13;;;;;;;80.97;34.53;;;1.30;99.90;;;;;;5034516;28;20505;-66
2023/01/21 03:20:47;;;;;;;92.32;37.95;;;1.40;99.90;;;;;;5034527;28;20034;-66
2023/01/21 03:23:19;;;;;;;87.55;35.88;;;1.40;99.90;;;;;;5049093;28;20048;-66
2023/01/21 03:25:47;;;;;;;83.57;35.58;;;1.30;99.90;;;;;;5054644;28;20054;-66
2023/01/21 03:28:18;;;;;;;90.63;35.67;;;1.40;99.90;;;;;;5054059;28;20507;-66
2023/01/21 03:30:50;;;;;;;89.10;37.05;;;1.40;99.90;;;;;;5060780;28;20053;-66
2023/01/21 03:33:17;;;;;;;88.32;36.88;;;1.30;99.90;;;;;;5053832;28;20033;-66
2023/01/21 03:35:47;;;;;;;87.25;37.35;;;1.30;99.90;;;;;;5054575;28;20413;-66
2023/01/21 03:38:28;;;;;;;88.20;37.25;;;1.30;99.90;;;;;;5054155;28;20081;-67
2023/01/21 03:41:21;;;;;;;80.38;37.15;;;1.30;99.90;;;;;;5052868;28;20033;-66
2023/01/21 03:43:47;;;;;;;86.35;37.20;;;1.20;99.90;;;;;;5054504;28;20041;-66
2023/01/21 03:46:34;;;;;;;88.15;37.03;;;1.20;99.90;;;;;;5054134;28;20021;-67
2023/01/21 03:49:13;;;;;;;86.97;37.97;;;1.20;99.90;;;;;;5053859;28;20413;-67
2023/01/21 03:51:45;;;;;;;92.03;36.88;;;1.20;99.90;;;;;;5054562;28;20025;-67
2023/01/21 03:54:10;;;;;;;84.28;35.35;;;1.20;99.90;;;;;;5034228;28;20021;-67
2023/01/21 03:56:36;;;;;;;90.30;37.08;;;1.30;99.90;;;;;;5034296;28;20389;-66
2023/01/21 03:59:02;;;;;;;83.47;33.90;;;1.20;99.90;;;;;;5046961;28;20048;-67
2023/01/21 04:01:27;;;;;;;89.53;35.33;;;1.30;99.90;;;;;;5054001;28;20111;-66
2023/01/21 04:03:53;;;;;;;89.47;34.88;;;1.20;99.90;;;;;;5053549;28;20048;-66
2023/01/21 04:06:21;;;;;;;84.95;34.28;;;1.20;99.90;;;;;;5053638;28;20533;-66
2023/01/21 04:08:47;;;;;;;83.90;35.28;;;1.20;99.90;;;;;;5053750;28;20029;-67
2023/01/21 04:11:13;;;;;;;87.63;36.67;;;1.20;99.90;;;;;;5053957;28;20032;-66
2023/01/21 04:13:38;;;;;;;88.72;37.35;;;1.20;99.90;;;;;;5054194;28;20035;-66
2023/01/21 04:16:05;;;;;;;85.28;37.25;;;1.20;99.90;;;;;;5051850;28;20040;-66
2023/01/21 04:18:31;;;;;;;88.47;37.30;;;1.20;99.90;;;;;;5049581;28;20033;-67
2023/01/21 04:20:57;;;;;;;87.68;36.58;;;1.20;99.90;;;;;;5053066;28;20029;-67
2023/01/21 04:23:22;;;;;;;99.18;38.58;;;1.30;99.90;;;;;;5052386;28;20037;-66
2023/01/21 04:25:49;;;;;;;93.43;36.38;;;1.20;99.90;;;;;;5053607;28;20107;-66
2023/01/21 04:28:15;;;;;;;88.30;37.38;;;1.20;99.90;;;;;;5053531;28;20485;-66
2023/01/21 04:30:41;;;;;;;89.57;35.55;;;1.10;99.90;;;;;;5052862;28;20040;-67
2023/01/21 04:33:07;;;;;;;96.45;39.38;;;1.10;99.90;;;;;;5052125;28;20036;-67
2023/01/21 04:35:35;;;;;;;90.70;35.90;;;1.10;99.90;;;;;;5053276;28;20025;-66
2023/01/21 04:38:01;;;;;;;99.03;38.03;;;1.10;99.90;;;;;;5049068;28;20477;-67
2023/01/21 04:40:27;;;;;;;90.20;35.97;;;1.00;99.90;;;;;;5053224;28;20384;-66
2023/01/21 04:42:52;;;;;;;91.55;36.55;;;1.10;99.90;;;;;;5050726;28;20039;-67
2023/01/21 04:45:18;;;;;;;89.05;35.60;;;1.10;99.90;;;;;;5052412;28;20021;-67
2023/01/21 04:47:44;;;;;;;95.95;38.28;;;1.00;99.90;;;;;;5053257;28;20112;-66
2023/01/21 04:50:11;;;;;;;90.60;38.45;;;1.10;99.90;;;;;;5036204;28;20083;-67
2023/01/21 04:52:37;;;;;;;98.45;39.67;;;1.10;99.90;;;;;;5033595;28;20081;-66
2023/01/21 04:55:03;;;;;;;95.50;39.47;;;1.00;99.90;;;;;;5041842;28;20036;-66
2023/01/21 04:57:29;;;;;;;92.30;37.65;;;1.10;99.90;;;;;;5040276;28;20026;-67
2023/01/21 04:59:55;;;;;;;94.65;37.75;;;1.00;99.90;;;;;;5052391;28;20021;-66
2023/01/21 05:02:20;;;;;;;93.68;37.88;;;1.10;99.90;;;;;;5045652;28;20484;-66
2023/01/21 05:04:46;;;;;;;87.28;36.33;;;1.00;99.90;;;;;;5039060;28;20094;-67
2023/01/21 05:07:12;;;;;;;94.65;37.33;;;1.00;99.90;;;;;;5041315;28;20034;-67
2023/01/21 05:09:38;;;;;;;96.00;36.78;;;1.00;99.90;;;;;;5032765;28;20109;-66
2023/01/21 05:12:04;;;;;;;96.82;38.63;;;1.00;99.90;;;;;;5040717;28;20465;-66
2023/01/21 05:14:29;;;;;;;92.50;37.35;;;1.00;99.90;;;;;;5052235;28;20067;-67
2023/01/21 05:16:55;;;;;;;98.90;37.67;;;1.00;99.90;;;;;;5051268;28;20039;-66
2023/01/21 05:19:20;;;;;;;92.10;38.28;;;1.00;99.90;;;;;;5052711;28;20492;-66
2023/01/21 05:21:46;;;;;;;105.07;40.00;;;0.90;99.90;;;;;;5052368;28;20033;-66
2023/01/21 05:24:12;;;;;;;99.15;40.15;;;0.90;99.90;;;;;;5051002;28;20037;-66
2023/01/21 05:26:37;;;;;;;97.40;41.17;;;0.90;99.90;;;;;;5051041;28;20025;-66
2023/01/21 05:29:03;;;;;;;99.88;40.17;;;0.90;99.90;;;;;;5052420;28;20029;-67
2023/01/21 05:31:29;;;;;;;98.78;39.83;;;0.90;99.90;;;;;;5050794;28;20547;-66
2023/01/21 05:33:56;;;;;;;98.13;38.75;;;1.00;99.90;;;;;;5052527;28;20163;-66
2023/01/21 05:36:21;;;;;;;100.55;40.13;;;0.90;99.90;;;;;;5034372;28;20607;-66
2023/01/21 05:38:47;;;;;;;102.28;40.08;;;0.90;99.90;;;;;;5031444;28;20021;-66
2023/01/21 05:41:13;;;;;;;104.65;43.60;;;0.90;99.90;;;;;;5032353;28;20547;-66
2023/01/21 05:43:38;;;;;;;98.38;39.58;;;0.90;99.90;;;;;;5045653;28;20397;-66
2023/01/21 05:46:04;;;;;;;98.10;38.65;;;0.90;99.90;;;;;;5051858;28;20025;-66
2023/01/21 05:48:30;;;;;;;100.72;38.75;;;0.90;99.90;;;;;;5050958;28;20791;-66
2023/01/21 05:50:57;;;;;;;100.10;41.60;;;0.80;99.90;;;;;;5051064;28;20032;-66
2023/01/21 05:53:23;;;;;;;105.78;42.75;;;0.80;99.90;;;;;;5052536;28;20029;-66
2023/01/21 05:55:53;;;;;;;92.93;38.55;;;0.80;99.90;;;;;;5052163;28;20075;-66
2023/01/21 05:58:20;;;;;;;99.95;38.85;;;0.70;99.90;;;;;;5052069;28;20029;-66
2023/01/21 06:00:47;;;;;;;106.10;40.47;;;0.70;99.90;;;;;;5051782;28;20477;-66
2023/01/21 06:03:14;;;;;;;98.78;40.20;;;0.80;99.90;;;;;;5051743;28;20378;-66
2023/01/21 06:05:40;;;;;;;107.45;40.97;;;0.80;99.90;;;;;;5052027;28;20083;-66
2023/01/21 06:08:07;;;;;;;99.95;39.72;;;0.80;99.90;;;;;;5052242;28;20016;-66
2023/01/21 06:10:32;;;;;;;102.63;43.65;;;0.70;99.90;;;;;;5051058;28;20803;-66
2023/01/21 06:12:58;;;;;;;113.68;41.92;;;0.70;99.90;;;;;;5052323;28;20032;-66
2023/01/21 06:15:27;;;;;;;101.00;42.40;;;0.80;99.90;;;;;;5052241;28;20025;-66
2023/01/21 06:17:53;;;;;;;106.32;43.03;;;0.80;99.90;;;;;;5048865;28;20033;-66
2023/01/21 06:20:21;;;;;;;101.03;41.28;;;0.80;99.90;;;;;;5056041;28;20495;-66
2023/01/21 06:22:46;;;;;;;99.45;42.78;;;0.80;99.90;;;;;;5049451;28;20599;-66
2023/01/21 06:25:12;;;;;;;102.50;39.78;;;0.80;99.90;;;;;;5054539;28;20025;-67
2023/01/21 06:27:38;;;;;;;97.03;41.22;;;0.80;99.90;;;;;;5046943;28;20025;-66
2023/01/21 06:30:08;;;;;;;103.57;40.65;;;0.80;99.90;;;;;;5046830;28;20033;-66
2023/01/21 06:32:35;;;;;;;98.40;41.90;;;0.90;99.90;;;;;;5049305;28;20037;-66
2023/01/21 06:35:00;;;;;;;104.30;42.00;;;0.80;99.90;;;;;;5053993;28;20055;-67
2023/01/21 06:37:26;;;;;;;98.70;38.65;;;0.90;99.90;;;;;;5055172;28;20488;-66
2023/01/21 06:39:52;;;;;;;102.18;39.80;;;0.90;99.90;;;;;;5055295;28;20025;-66
2023/01/21 06:42:18;;;;;;;99.22;37.88;;;0.90;99.90;;;;;;5058285;28;20024;-66
2023/01/21 06:44:44;;;;;;;96.03;38.78;;;0.80;99.90;;;;;;5040732;28;20037;-66
2023/01/21 06:47:10;;;;;;;93.00;39.40;;;0.90;99.90;;;;;;5035564;28;20029;-66
2023/01/21 06:49:36;;;;;;;102.68;40.85;;;0.80;99.90;;;;;;5054821;28;20025;-66
2023/01/21 06:52:02;;;;;;;91.47;37.67;;;0.80;99.90;;;;;;5055451;28;20044;-66
2023/01/21 06:54:27;;;;;;;102.25;39.30;;;0.80;99.90;;;;;;5054347;28;20031;-66
2023/01/21 06:56:53;;;;;;;97.00;38.90;;;0.80;99.90;;;;;;5055428;28;20025;-66
2023/01/21 06:59:19;;;;;;;101.40;39.20;;;0.70;99.90;;;;;;5054717;28;20029;-66
2023/01/21 07:01:44;;;;;;;98.32;38.38;;;0.80;99.90;;;;;;5053722;28;20508;-66
2023/01/21 07:04:10;;;;;;;98.28;39.38;;;0.70;99.90;;;;;;5054998;28;20049;-66
2023/01/21 07:06:36;;;;;;;105.63;39.55;;;0.60;99.90;;;;;;5054836;28;20052;-66
2023/01/21 07:09:03;;;;;;;104.75;39.15;;;0.60;99.90;;;;;;5053349;28;20661;-66
2023/01/21 07:11:29;;;;;;;107.07;39.03;;;0.60;99.90;;;;;;5054780;28;20029;-66
2023/01/21 07:13:54;;;;;;;97.90;39.17;;;0.60;99.90;;;;;;5054629;28;20020;-66
2023/01/21 07:16:20;;;;;;;102.60;39.92;;;0.70;99.90;;;;;;5054889;28;20183;-66
2023/01/21 07:18:46;;;;;;;101.00;38.22;;;0.70;99.90;;;;;;5053859;28;20021;-66
2023/01/21 07:21:11;;;;;;;99.40;38.63;;;0.70;99.90;;;;;;5054744;28;20377;-66
2023/01/21 07:23:37;;;;;;;102.70;40.33;;;0.70;99.90;;;;;;5052650;28;20035;-66
2023/01/21 07:26:03;;;;;;;98.43;40.33;;;0.70;99.90;;;;;;5054868;28;20049;-66
2023/01/21 07:28:29;;;;;;;99.97;39.97;;;0.60;99.90;;;;;;5053292;28;20025;-67
2023/01/21 07:30:58;;;;;;;99.25;39.03;;;0.70;99.90;;;;;;5041476;28;20049;-66
2023/01/21 07:33:24;;;;;;;112.60;41.05;;;0.80;99.90;;;;;;5034886;28;20033;-67
2023/01/21 07:35:50;;;;;;;106.38;40.30;;;0.70;99.90;;;;;;5034683;28;20044;-66
2023/01/21 07:38:16;;;;;;;105.18;39.00;;;0.70;99.90;;;;;;5034106;28;20029;-67
2023/01/21 07:40:41;;;;;;;110.07;41.22;;;0.70;99.90;;;;;;5034603;28;20359;-67
2023/01/21 07:43:08;;;;;;;102.15;40.55;;;0.70;99.90;;;;;;5033258;28;20029;-67
2023/01/21 07:45:33;;;;;;;99.00;39.55;;;0.70;99.90;;;;;;5034434;28;20036;-66
2023/01/21 07:47:59;;;;;;;98.22;39.70;;;0.70;99.90;;;;;;5040770;28;20402;-66
2023/01/21 07:50:25;;;;;;;97.68;39.53;;;0.70;99.90;;;;;;5054318;28;20397;-66
2023/01/21 07:52:58;;;;;;;106.05;41.03;;;0.70;99.90;;;;;;5053901;28;20025;-68
2023/01/21 07:55:24;;;;;;;110.47;41.40;;;0.70;99.90;;;;;;5048381;28;20021;-67
2023/01/21 07:57:49;;;;;;;104.10;43.63;;;0.80;99.90;;;;;;5044550;28;20552;-66
2023/01/21 08:00:15;;;;;;;105.28;41.15;;;0.70;99.90;;;;;;5043672;28;20026;-66
2023/01/21 08:02:41;;;;;;;102.70;39.92;;;0.60;99.90;;;;;;5050831;28;20025;-67
2023/01/21 08:05:07;;;;;;;109.10;44.55;;;0.70;99.90;;;;;;5040716;28;20518;-66
2023/01/21 08:07:33;;;;;;;103.78;42.95;;;0.70;99.90;;;;;;5040962;28;20025;-66
2023/01/21 08:09:58;;;;;;;104.40;42.33;;;0.70;99.90;;;;;;5052333;28;20589;-67
2023/01/21 08:12:24;;;;;;;108.00;43.85;;;0.70;99.90;;;;;;5051537;28;20029;-66
2023/01/21 08:14:49;;;;;;;107.70;43.65;;;0.70;99.90;;;;;;5040870;28;20031;-66
2023/01/21 08:17:15;;;;;;;103.80;42.67;;;0.60;99.90;;;;;;5033983;28;20060;-66
2023/01/21 08:19:41;;;;;;;118.97;44.08;;;0.70;99.90;;;;;;5051893;28;20150;-66
2023/01/21 08:22:06;;;;;;;108.47;42.38;;;0.70;99.90;;;;;;5053137;28;20036;-67
2023/01/21 08:24:32;;;;;;;109.22;41.70;;;0.70;99.90;;;;;;5053479;28;20037;-66
2023/01/21 08:26:58;;;;;;;108.32;41.70;;;0.80;99.90;;;;;;5047228;28;20429;-67
2023/01/21 08:29:24;;;;;;;106.00;40.35;;;0.80;99.90;;;;;;5041620;28;20108;-66
2023/01/21 08:31:51;;;;;;;100.07;40.53;;;0.90;99.90;;;;;;5042377;28;20132;-67
2023/01/21 08:34:17;;;;;;;104.05;40.05;;;0.90;99.90;;;;;;5033143;28;20029;-67
2023/01/21 08:36:43;;;;;;;106.10;40.97;;;0.90;99.90;;;;;;5033095;28;20382;-66
2023/01/21 08:39:11;;;;;;;111.97;43.83;;;1.00;99.90;;;;;;5044020;28;20033;-67
2023/01/21 08:41:39;;;;;;;103.47;41.28;;;1.00;99.90;;;;;;5033905;28;20029;-67
2023/01/21 08:44:05;;;;;;;116.22;43.78;;;1.00;99.90;;;;;;5033298;28;20061;-67
2023/01/21 08:46:31;;;;;;;100.40;42.42;;;1.00;99.90;;;;;;5033161;28;20525;-66
2023/01/21 08:48:57;;;;;;;114.35;42.40;;;1.00;99.90;;;;;;5048963;28;20104;-67
2023/01/21 08:51:22;;;;;;;105.05;44.22;;;1.10;99.90;;;;;;5052804;28;20070;-67
2023/01/21 08:53:49;;;;;;;103.10;42.05;;;1.10;99.90;;;;;;5050256;28;20021;-67
2023/01/21 08:56:16;;;;;;;115.10;43.88;;;1.10;99.90;;;;;;5053012;28;20412;-67
2023/01/21 08:58:42;;;;;;;113.32;43.58;;;1.10;99.90;;;;;;5051677;28;20152;-67
2023/01/21 09:01:10;;;;;;;115.43;46.60;;;1.20;99.90;;;;;;5049525;28;20108;-67
2023/01/21 09:03:36;;;;;;;115.25;43.40;;;1.20;99.90;;;;;;5044731;28;20048;-67
2023/01/21 09:06:03;;;;;;;112.35;44.00;;;1.30;99.90;;;;;;5051410;28;20029;-67
2023/01/21 09:08:28;;;;;;;118.43;44.13;;;1.20;99.90;;;;;;5052072;28;20021;-67
2023/01/21 09:11:01;;;;;;;112.57;43.38;;;1.20;99.90;;;;;;5052882;28;20021;-67
2023/01/21 09:13:33;;;;;;;113.35;43.83;;;1.30;99.90;;;;;;5052942;28;20108;-67
2023/01/21 09:15:59;;;;;;;110.35;42.88;;;1.30;99.90;;;;;;5052688;28;20405;-66
2023/01/21 09:18:24;;;;;;;115.78;41.40;;;1.20;99.90;;;;;;5051060;28;20025;-67
2023/01/21 09:20:50;;;;;;;107.88;42.80;;;1.20;99.90;;;;;;5032409;28;20099;-68
2023/01/21 09:23:26;;;;;;;114.60;43.67;;;1.10;99.90;;;;;;5032774;28;20076;-67
2023/01/21 09:25:53;;;;;;;137.80;46.58;;;1.20;99.90;;;;;;5031774;28;20083;-68
2023/01/21 09:28:20;;;;;;;125.35;45.85;;;0.90;99.90;;;;;;5043226;28;20064;-70
2023/01/21 09:30:46;;;;;;;127.05;43.53;;;1.00;99.90;;;;;;5051817;28;20033;-71
2023/01/21 09:33:13;;;;;;;126.10;44.55;;;0.90;99.90;;;;;;5052007;28;20041;-72
2023/01/21 09:35:38;;;;;;;112.93;42.03;;;0.90;99.90;;;;;;5052216;28;20021;-70
2023/01/21 09:38:04;;;;;;;127.30;43.33;;;0.90;99.90;;;;;;5051528;28;20032;-71
2023/01/21 09:40:30;;;;;;;126.15;42.30;;;0.90;99.90;;;;;;5050929;28;20057;-72
2023/01/21 09:42:56;;;;;;;117.40;42.42;;;0.80;99.90;;;;;;5052419;28;20485;-72
2023/01/21 09:45:22;;;;;;;119.32;42.63;;;1.00;99.90;;;;;;5050952;28;20033;-72
2023/01/21 09:47:49;;;;;;;129.57;44.38;;;0.90;99.90;;;;;;5048245;28;20486;-72
2023/01/21 09:50:21;;;;;;;126.88;44.63;;;0.70;99.90;;;;;;5031647;28;20021;-73
2023/01/21 09:52:50;;;;;;;123.95;44.05;;;0.80;99.90;;;;;;5035077;28;20017;-69
2023/01/21 09:55:22;;;;;;;126.13;44.83;;;0.80;99.90;;;;;;5036155;28;20104;-69
2023/01/21 09:58:00;;;;;;;135.38;46.45;;;0.90;99.90;;;;;;5046088;28;20036;-67
2023/01/21 10:00:49;;;;;;;111.35;41.15;;;1.00;99.90;;;;;;5055598;28;20021;-67
2023/01/21 10:03:26;;;;;;;145.25;46.83;;;1.10;99.90;;;;;;5055445;28;20033;-67
2023/01/21 10:06:04;;;;;;;133.57;47.55;;;0.90;99.90;;;;;;5055709;28;20025;-67
2023/01/21 10:08:44;;;;;;;125.30;45.85;;;1.10;99.90;;;;;;5055492;28;20439;-67
2023/01/21 10:11:26;;;;;;;128.27;46.03;;;1.20;99.90;;;;;;5055807;28;20029;-67
2023/01/21 10:14:03;;;;;;;127.65;46.03;;;1.20;99.90;;;;;;5053575;28;20047;-67
2023/01/21 10:16:35;;;;;;;131.52;46.20;;;1.40;99.90;;;;;;5056067;28;20036;-67
2023/01/21 10:19:03;;;;;;;143.30;48.80;;;1.40;99.90;;;;;;5044814;28;20548;-67
2023/01/21 10:21:52;;;;;;;130.80;45.40;;;1.40;99.90;;;;;;5035745;28;20477;-67
2023/01/21 10:24:44;;;;;;;140.35;47.28;;;1.40;99.90;;;;;;5035090;28;20490;-68
2023/01/21 10:27:17;;;;;;;129.60;45.80;;;1.40;99.90;;;;;;5051014;28;20191;-66
2023/01/21 10:29:43;;;;;;;120.28;42.38;;;1.40;99.90;;;;;;5055381;28;20021;-66
2023/01/21 10:32:15;;;;;;;146.90;46.63;;;1.50;99.90;;;;;;5053625;28;20513;-66
2023/01/21 10:34:48;;;;;;;;;;;1.50;99.90;;;;;;5055716;28;20056;-67
2023/01/21 10:37:36;;;;;;;134.73;43.38;;;1.60;99.90;;;;;;5053737;28;19904;-66
2023/01/21 10:40:08;;;;;;;135.63;47.78;;;1.60;99.90;;;;;;5053430;28;20025;-67
2023/01/21 10:43:00;;;;;;;139.52;44.72;;;1.70;99.90;;;;;;5055850;28;20032;-66
2023/01/21 10:45:36;;;;;;;143.63;44.60;;;1.70;99.90;;;;;;5045716;28;20024;-66
2023/01/21 10:48:25;;;;;;;132.90;42.13;;;1.60;99.90;;;;;;5045872;28;20380;-66
2023/01/21 10:51:07;;;;;;;123.75;42.33;;;1.70;99.90;;;;;;5035286;28;20069;-66
2023/01/21 10:54:19;;;;;;;120.82;41.22;;;1.70;99.90;;;;;;5045301;28;20476;-66
2023/01/21 10:57:21;;;;;;;131.52;43.70;;;1.70;99.90;;;;;;5054081;28;20140;-67
2023/01/21 10:59:48;;;;;;;119.88;41.15;;;1.90;99.90;;;;;;5045036;28;20081;-66
2023/01/21 11:02:26;;;;;;;139.38;44.35;;;1.80;99.90;;;;;;5039692;28;20044;-66
2023/01/21 11:04:52;;;;;;;127.18;44.75;;;1.80;99.90;;;;;;5041131;28;20429;-67
2023/01/21 11:07:21;;;;;;;132.23;46.63;;;2.10;99.90;;;;;;5040847;28;20025;-67
2023/01/21 11:09:47;;;;;;;137.30;45.25;;;2.00;99.90;;;;;;5052026;28;20024;-66
2023/01/21 11:12:18;;;;;;;122.28;41.75;;;2.30;99.90;;;;;;5041222;28;20036;-66
2023/01/21 11:14:56;;;;;;;128.13;43.72;;;2.40;99.90;;;;;;5033949;28;20032;-67
2023/01/21 11:17:34;;;;;;;115.00;41.35;;;2.60;99.90;;;;;;5035144;28;20424;-67
2023/01/21 11:20:03;;;;;;;124.95;43.80;;;2.60;99.90;;;;;;5044828;28;20546;-70
2023/01/21 11:22:31;;;;;;;110.82;40.80;;;2.80;99.90;;;;;;5054905;28;20115;-68
2023/01/21 11:24:58;;;;;;;115.60;41.42;;;2.80;99.90;;;;;;5053537;28;20126;-68
2023/01/21 11:27:27;;;;;;;114.43;41.95;;;2.80;99.90;;;;;;5052964;28;20049;-68
2023/01/21 11:29:52;;;;;;;122.57;41.78;;;2.90;99.90;;;;;;5053787;28;20032;-68
2023/01/21 11:32:21;;;;;;;122.00;42.78;;;3.00;99.90;;;;;;5038496;28;20034;-67
2023/01/21 11:34:58;;;;;;;119.03;41.83;;;3.10;99.90;;;;;;5033814;28;20105;-70
2023/01/21 11:37:29;;;;;;;114.03;41.97;;;3.20;99.90;;;;;;5042403;28;20393;-68
2023/01/21 11:40:10;;;;;;;108.93;39.88;;;3.20;99.90;;;;;;5047032;28;20029;-71
2023/01/21 11:42:46;;;;;;;116.88;41.03;;;3.30;99.90;;;;;;5043084;28;20100;-69
2023/01/21 11:45:29;;;;;;;115.13;41.40;;;3.40;99.90;;;;;;5049552;28;20060;-69
2023/01/21 11:47:55;;;;;;;;;;;3.50;99.90;;;;;;5053503;28;20028;-69
2023/01/21 11:50:33;;;;;;;118.53;42.78;;;3.50;99.90;;;;;;5052648;28;19909;-70
2023/01/21 11:53:18;;;;;;;126.15;46.95;;;3.60;99.90;;;;;;5052310;28;20033;-70
2023/01/21 11:55:43;;;;;;;115.18;43.90;;;3.70;99.90;;;;;;5034113;28;20025;-70
2023/01/21 11:58:23;;;;;;;108.00;42.22;;;3.60;99.90;;;;;;5044425;28;20082;-71
2023/01/21 12:00:51;;;;;;;114.60;42.78;;;3.60;99.90;;;;;;5052973;28;20513;-72
2023/01/21 12:03:21;;;;;;;116.05;41.28;;;3.70;99.90;;;;;;5053515;28;20099;-69
2023/01/21 12:05:52;;;;;;;116.15;42.40;;;3.80;99.90;;;;;;5053469;28;20373;-70
2023/01/21 12:08:27;;;;;;;99.53;38.13;;;3.90;99.90;;;;;;5053479;28;20029;-70
2023/01/21 12:10:55;;;;;;;98.95;38.05;;;3.90;99.90;;;;;;5053573;28;20025;-69
2023/01/21 12:13:33;;;;;;;113.32;39.50;;;3.90;99.90;;;;;;5051500;28;20114;-71
2023/01/21 12:16:25;;;;;;;100.00;39.65;;;4.00;99.90;;;;;;5035370;28;20033;-72
2023/01/21 12:19:25;;;;;;;99.47;38.55;;;4.00;99.90;;;;;;5042240;28;20036;-69
2023/01/21 12:22:15;;;;;;;92.93;37.10;;;4.00;99.90;;;;;;5051777;28;20078;-71
2023/01/21 12:25:00;;;;;;;99.45;37.45;;;4.10;99.90;;;;;;5051476;28;20095;-70
2023/01/21 12:28:06;;;;;;;110.45;40.78;;;4.10;99.90;;;;;;5041688;28;20020;-71
2023/01/21 12:30:52;;;;;;;104.93;40.35;;;4.10;99.90;;;;;;5047515;28;20085;-70
2023/01/21 12:33:23;;;;;;;94.57;37.63;;;4.20;99.90;;;;;;5043637;28;20127;-70
2023/01/21 12:35:56;;;;;;;109.88;41.65;;;4.20;99.90;;;;;;5052672;28;20079;-71
2023/01/21 12:38:35;;;;;;;102.93;39.88;;;4.20;99.90;;;;;;5027063;28;20649;-71
2023/01/21 12:41:22;;;;;;;113.18;40.63;;;4.30;99.90;;;;;;5045179;28;20037;-71
2023/01/21 12:44:19;;;;;;;87.85;35.60;;;4.30;99.90;;;;;;5045695;28;20028;-71
2023/01/21 12:46:49;;;;;;;102.00;36.45;;;4.30;99.90;;;;;;5061373;28;20045;-71
2023/01/21 12:49:42;;;;;;;100.88;36.97;;;4.30;99.90;;;;;;5046704;28;20052;-71
2023/01/21 12:52:47;;;;;;;100.47;37.38;;;4.30;99.90;;;;;;5046749;28;20025;-72
2023/01/21 12:55:46;;;;;;;102.72;38.60;;;4.30;99.90;;;;;;5046215;28;20111;-72